createdAt,value
2017-06-28T00:00:08.532Z,941.2
2017-06-28T00:00:36.663Z,941.23
2017-06-28T00:01:04.723Z,941.2
2017-06-28T00:01:32.869Z,941.26
2017-06-28T00:02:00.818Z,941.24
2017-06-28T00:02:28.953Z,941.24
2017-06-28T00:02:57.099Z,941.27
2017-06-28T00:03:25.136Z,941.27
2017-06-28T00:03:53.261Z,941.25
2017-06-28T00:04:21.305Z,941.25
2017-06-28T00:04:49.349Z,941.25
2017-06-28T00:05:17.401Z,941.25
2017-06-28T00:05:45.550Z,941.25
2017-06-28T00:06:13.599Z,941.27
2017-06-28T00:06:41.727Z,941.28
2017-06-28T00:07:09.835Z,941.28
2017-06-28T00:07:37.976Z,941.28
2017-06-28T00:08:06.109Z,941.29
2017-06-28T00:08:34.273Z,941.27
2017-06-28T00:09:02.411Z,941.3
2017-06-28T00:09:30.441Z,941.33
2017-06-28T00:09:58.587Z,941.35
2017-06-28T00:10:26.733Z,941.35
2017-06-28T00:10:54.701Z,941.37
2017-06-28T00:11:22.830Z,941.34
2017-06-28T00:11:50.764Z,941.39
2017-06-28T00:12:18.829Z,941.36
2017-06-28T00:12:46.998Z,941.36
2017-06-28T00:13:15.250Z,941.36
2017-06-28T00:13:43.387Z,941.35
2017-06-28T00:14:11.434Z,941.34
2017-06-28T00:14:39.419Z,941.36
2017-06-28T00:15:07.564Z,941.39
2017-06-28T00:15:35.698Z,941.39
2017-06-28T00:16:03.834Z,941.39
2017-06-28T00:16:31.950Z,941.39
2017-06-28T00:16:59.940Z,941.39
2017-06-28T00:17:27.986Z,941.43
2017-06-28T00:17:56.115Z,941.4
2017-06-28T00:18:24.297Z,941.41
2017-06-28T00:18:52.330Z,941.44
2017-06-28T00:19:20.482Z,941.4
2017-06-28T00:19:48.521Z,941.45
2017-06-28T00:20:16.676Z,941.42
2017-06-28T00:20:44.809Z,941.44
2017-06-28T00:21:12.785Z,941.46
2017-06-28T00:21:40.916Z,941.45
2017-06-28T00:22:08.967Z,941.46
2017-06-28T00:22:37.087Z,941.44
2017-06-28T00:23:05.106Z,941.47
2017-06-28T00:23:33.254Z,941.42
2017-06-28T00:24:01.272Z,941.47
2017-06-28T00:24:29.400Z,941.46
2017-06-28T00:24:57.590Z,941.47
2017-06-28T00:25:25.630Z,941.44
2017-06-28T00:25:53.690Z,941.47
2017-06-28T00:26:21.867Z,941.49
2017-06-28T00:26:50.000Z,941.46
2017-06-28T00:27:18.157Z,941.46
2017-06-28T00:27:46.295Z,941.43
2017-06-28T00:28:14.439Z,941.47
2017-06-28T00:28:42.594Z,941.45
2017-06-28T00:29:10.639Z,941.47
2017-06-28T00:29:38.753Z,941.46
2017-06-28T00:30:06.896Z,941.47
2017-06-28T00:30:35.042Z,941.48
2017-06-28T00:31:03.196Z,941.53
2017-06-28T00:31:31.334Z,941.52
2017-06-28T00:31:59.385Z,941.53
2017-06-28T00:32:27.435Z,941.53
2017-06-28T00:32:55.587Z,941.51
2017-06-28T00:33:23.721Z,941.55
2017-06-28T00:33:51.866Z,941.58
2017-06-28T00:34:19.921Z,941.58
2017-06-28T00:34:48.040Z,941.59
2017-06-28T00:35:16.186Z,941.58
2017-06-28T00:35:44.233Z,941.6
2017-06-28T00:36:12.298Z,941.59
2017-06-28T00:36:40.423Z,941.62
2017-06-28T00:37:08.541Z,941.6
2017-06-28T00:37:36.687Z,941.61
2017-06-28T00:38:04.730Z,941.61
2017-06-28T00:38:32.879Z,941.62
2017-06-28T00:39:00.908Z,941.61
2017-06-28T00:39:29.064Z,941.61
2017-06-28T00:39:57.206Z,941.6
2017-06-28T00:40:25.264Z,941.58
2017-06-28T00:40:53.440Z,941.58
2017-06-28T00:41:21.572Z,941.61
2017-06-28T00:41:49.732Z,941.62
2017-06-28T00:42:17.862Z,941.58
2017-06-28T00:42:45.802Z,941.61
2017-06-28T00:43:13.955Z,941.65
2017-06-28T00:43:42.023Z,941.62
2017-06-28T00:44:10.187Z,941.62
2017-06-28T00:44:38.336Z,941.66
2017-06-28T00:45:06.481Z,941.65
2017-06-28T00:45:34.615Z,941.67
2017-06-28T00:46:02.775Z,941.68
2017-06-28T00:46:30.806Z,941.66
2017-06-28T00:46:58.973Z,941.68
2017-06-28T00:47:27.120Z,941.69
2017-06-28T00:47:55.242Z,941.69
2017-06-28T00:48:23.415Z,941.68
2017-06-28T00:48:51.517Z,941.68
2017-06-28T00:49:19.626Z,941.73
2017-06-28T00:49:47.787Z,941.7
2017-06-28T00:50:15.933Z,941.72
2017-06-28T00:50:44.066Z,941.72
2017-06-28T00:51:12.125Z,941.71
2017-06-28T00:51:40.260Z,941.7
2017-06-28T00:52:08.382Z,941.7
2017-06-28T00:52:36.526Z,941.71
2017-06-28T00:53:04.654Z,941.72
2017-06-28T00:53:32.793Z,941.68
2017-06-28T00:54:00.942Z,941.7
2017-06-28T00:54:29.123Z,941.7
2017-06-28T00:54:57.271Z,941.69
2017-06-28T00:55:25.397Z,941.65
2017-06-28T00:55:53.528Z,941.7
2017-06-28T00:56:21.602Z,941.69
2017-06-28T00:56:49.734Z,941.68
2017-06-28T00:57:17.885Z,941.69
2017-06-28T00:57:45.942Z,941.72
2017-06-28T00:58:14.077Z,941.67
2017-06-28T00:58:42.097Z,941.69
2017-06-28T00:59:10.244Z,941.64
2017-06-28T00:59:38.408Z,941.67
2017-06-28T01:00:06.558Z,941.68
2017-06-28T01:00:34.713Z,941.68
2017-06-28T01:01:02.856Z,941.63
2017-06-28T01:01:30.908Z,941.64
2017-06-28T01:01:58.950Z,941.67
2017-06-28T01:02:27.109Z,941.67
2017-06-28T01:02:55.242Z,941.67
2017-06-28T01:03:23.363Z,941.67
2017-06-28T01:03:51.517Z,941.65
2017-06-28T01:04:19.674Z,941.64
2017-06-28T01:04:47.745Z,941.65
2017-06-28T01:05:15.792Z,941.63
2017-06-28T01:05:43.843Z,941.62
2017-06-28T01:06:11.894Z,941.61
2017-06-28T01:06:40.048Z,941.62
2017-06-28T01:07:08.194Z,941.62
2017-06-28T01:07:36.337Z,941.58
2017-06-28T01:08:04.480Z,941.57
2017-06-28T01:08:32.604Z,941.59
2017-06-28T01:09:00.755Z,941.58
2017-06-28T01:09:28.898Z,941.61
2017-06-28T01:09:57.057Z,941.56
2017-06-28T01:10:25.060Z,941.6
2017-06-28T01:10:53.201Z,941.59
2017-06-28T01:11:21.336Z,941.58
2017-06-28T01:11:49.498Z,941.59
2017-06-28T01:12:17.688Z,941.63
2017-06-28T01:12:45.754Z,941.61
2017-06-28T01:13:13.807Z,941.65
2017-06-28T01:13:41.979Z,941.63
2017-06-28T01:14:10.083Z,941.61
2017-06-28T01:14:38.222Z,941.61
2017-06-28T01:15:06.457Z,941.6
2017-06-28T01:15:35.808Z,941.62
2017-06-28T01:16:03.839Z,941.61
2017-06-28T01:16:31.959Z,941.63
2017-06-28T01:17:00.077Z,941.64
2017-06-28T01:17:28.225Z,941.63
2017-06-28T01:17:56.386Z,941.62
2017-06-28T01:18:24.528Z,941.62
2017-06-28T01:18:52.544Z,941.63
2017-06-28T01:19:20.679Z,941.65
2017-06-28T01:19:48.740Z,941.63
2017-06-28T01:20:16.862Z,941.63
2017-06-28T01:20:44.918Z,941.62
2017-06-28T01:21:13.051Z,941.61
2017-06-28T01:21:41.148Z,941.62
2017-06-28T01:22:09.295Z,941.61
2017-06-28T01:22:37.334Z,941.59
2017-06-28T01:23:05.475Z,941.57
2017-06-28T01:23:33.638Z,941.62
2017-06-28T01:24:01.789Z,941.57
2017-06-28T01:24:29.935Z,941.56
2017-06-28T01:24:58.069Z,941.58
2017-06-28T01:25:26.221Z,941.55
2017-06-28T01:25:54.302Z,941.56
2017-06-28T01:26:22.443Z,941.56
2017-06-28T01:26:50.591Z,941.57
2017-06-28T01:27:18.624Z,941.56
2017-06-28T01:27:46.767Z,941.55
2017-06-28T01:28:14.889Z,941.58
2017-06-28T01:28:42.993Z,941.54
2017-06-28T01:29:11.111Z,941.6
2017-06-28T01:29:39.241Z,941.58
2017-06-28T01:30:07.295Z,941.58
2017-06-28T01:30:35.430Z,941.58
2017-06-28T01:31:03.589Z,941.57
2017-06-28T01:31:31.730Z,941.55
2017-06-28T01:31:59.759Z,941.56
2017-06-28T01:32:27.877Z,941.57
2017-06-28T01:32:55.827Z,941.59
2017-06-28T01:33:23.864Z,941.58
2017-06-28T01:33:52.019Z,941.61
2017-06-28T01:34:20.153Z,941.57
2017-06-28T01:34:48.094Z,941.58
2017-06-28T01:35:16.236Z,941.59
2017-06-28T01:35:44.406Z,941.61
2017-06-28T01:36:12.522Z,941.57
2017-06-28T01:36:40.664Z,941.59
2017-06-28T01:37:08.780Z,941.56
2017-06-28T01:37:36.921Z,941.57
2017-06-28T01:38:05.073Z,941.57
2017-06-28T01:38:33.222Z,941.56
2017-06-28T01:39:01.354Z,941.58
2017-06-28T01:39:29.375Z,941.56
2017-06-28T01:39:57.488Z,941.53
2017-06-28T01:40:25.506Z,941.54
2017-06-28T01:40:53.628Z,941.56
2017-06-28T01:41:21.687Z,941.57
2017-06-28T01:41:49.832Z,941.57
2017-06-28T01:42:17.958Z,941.61
2017-06-28T01:42:45.998Z,941.56
2017-06-28T01:43:14.122Z,941.58
2017-06-28T01:43:42.176Z,941.57
2017-06-28T01:44:10.323Z,941.6
2017-06-28T01:44:38.476Z,941.61
2017-06-28T01:45:06.599Z,941.61
2017-06-28T01:45:34.730Z,941.64
2017-06-28T01:46:02.865Z,941.59
2017-06-28T01:46:31.004Z,941.57
2017-06-28T01:46:59.079Z,941.58
2017-06-28T01:47:27.202Z,941.54
2017-06-28T01:47:55.309Z,941.56
2017-06-28T01:48:23.418Z,941.54
2017-06-28T01:48:51.555Z,941.53
2017-06-28T01:49:19.693Z,941.53
2017-06-28T01:49:47.839Z,941.53
2017-06-28T01:50:15.791Z,941.52
2017-06-28T01:50:43.830Z,941.53
2017-06-28T01:51:11.847Z,941.53
2017-06-28T01:51:39.980Z,941.55
2017-06-28T01:52:08.108Z,941.52
2017-06-28T01:52:36.223Z,941.56
2017-06-28T01:53:04.346Z,941.57
2017-06-28T01:53:32.509Z,941.53
2017-06-28T01:54:00.643Z,941.57
2017-06-28T01:54:28.761Z,941.54
2017-06-28T01:54:56.802Z,941.53
2017-06-28T01:55:24.937Z,941.55
2017-06-28T01:55:52.967Z,941.57
2017-06-28T01:56:21.153Z,941.54
2017-06-28T01:56:49.301Z,941.55
2017-06-28T01:57:17.465Z,941.54
2017-06-28T01:57:45.592Z,941.54
2017-06-28T01:58:13.724Z,941.54
2017-06-28T01:58:41.821Z,941.54
2017-06-28T01:59:09.760Z,941.57
2017-06-28T01:59:37.888Z,941.55
2017-06-28T02:00:05.848Z,941.58
2017-06-28T02:00:33.888Z,941.55
2017-06-28T02:01:01.927Z,941.55
2017-06-28T02:01:29.947Z,941.57
2017-06-28T02:01:57.962Z,941.54
2017-06-28T02:02:25.995Z,941.55
2017-06-28T02:02:54.036Z,941.52
2017-06-28T02:03:22.151Z,941.53
2017-06-28T02:03:50.273Z,941.5
2017-06-28T02:04:18.395Z,941.5
2017-06-28T02:04:46.529Z,941.5
2017-06-28T02:05:14.665Z,941.53
2017-06-28T02:05:42.722Z,941.48
2017-06-28T02:06:10.764Z,941.47
2017-06-28T02:06:38.884Z,941.49
2017-06-28T02:07:06.945Z,941.48
2017-06-28T02:07:34.967Z,941.49
2017-06-28T02:08:03.081Z,941.53
2017-06-28T02:08:31.209Z,941.48
2017-06-28T02:08:59.247Z,941.47
2017-06-28T02:09:27.265Z,941.49
2017-06-28T02:09:55.388Z,941.44
2017-06-28T02:10:23.504Z,941.5
2017-06-28T02:10:51.538Z,941.45
2017-06-28T02:11:19.679Z,941.48
2017-06-28T02:11:47.804Z,941.5
2017-06-28T02:12:15.948Z,941.45
2017-06-28T02:12:44.075Z,941.46
2017-06-28T02:13:12.209Z,941.42
2017-06-28T02:13:40.348Z,941.45
2017-06-28T02:14:08.489Z,941.47
2017-06-28T02:14:36.638Z,941.46
2017-06-28T02:15:04.757Z,941.45
2017-06-28T02:15:32.891Z,941.45
2017-06-28T02:16:01.038Z,941.48
2017-06-28T02:16:29.085Z,941.48
2017-06-28T02:16:57.142Z,941.44
2017-06-28T02:17:25.283Z,941.46
2017-06-28T02:17:53.533Z,941.42
2017-06-28T02:18:21.656Z,941.42
2017-06-28T02:18:49.807Z,941.43
2017-06-28T02:19:17.947Z,941.44
2017-06-28T02:19:46.098Z,941.43
2017-06-28T02:20:14.243Z,941.47
2017-06-28T02:20:42.369Z,941.44
2017-06-28T02:21:10.400Z,941.43
2017-06-28T02:21:38.519Z,941.41
2017-06-28T02:22:06.652Z,941.42
2017-06-28T02:22:34.782Z,941.37
2017-06-28T02:23:02.927Z,941.38
2017-06-28T02:23:30.966Z,941.42
2017-06-28T02:23:59.093Z,941.44
2017-06-28T02:24:27.236Z,941.44
2017-06-28T02:24:55.294Z,941.4
2017-06-28T02:25:23.444Z,941.41
2017-06-28T02:25:51.557Z,941.41
2017-06-28T02:26:19.694Z,941.41
2017-06-28T02:26:47.839Z,941.39
2017-06-28T02:27:15.941Z,941.37
2017-06-28T02:27:44.093Z,941.35
2017-06-28T02:28:12.204Z,941.4
2017-06-28T02:28:40.330Z,941.35
2017-06-28T02:29:08.453Z,941.34
2017-06-28T02:29:36.594Z,941.33
2017-06-28T02:30:04.721Z,941.36
2017-06-28T02:30:32.685Z,941.33
2017-06-28T02:31:00.802Z,941.35
2017-06-28T02:31:28.753Z,941.31
2017-06-28T02:31:56.858Z,941.34
2017-06-28T02:32:24.957Z,941.34
2017-06-28T02:32:52.996Z,941.33
2017-06-28T02:33:21.046Z,941.36
2017-06-28T02:33:49.092Z,941.33
2017-06-28T02:34:17.106Z,941.33
2017-06-28T02:34:45.160Z,941.33
2017-06-28T02:35:13.295Z,941.35
2017-06-28T02:35:41.463Z,941.36
2017-06-28T02:36:09.567Z,941.36
2017-06-28T02:36:37.695Z,941.35
2017-06-28T02:37:05.858Z,941.32
2017-06-28T02:37:33.977Z,941.37
2017-06-28T02:38:02.119Z,941.34
2017-06-28T02:38:30.151Z,941.32
2017-06-28T02:38:58.287Z,941.35
2017-06-28T02:39:26.397Z,941.32
2017-06-28T02:39:54.440Z,941.29
2017-06-28T02:40:22.438Z,941.32
2017-06-28T02:40:50.595Z,941.32
2017-06-28T02:41:18.830Z,941.29
2017-06-28T02:41:46.861Z,941.33
2017-06-28T02:42:14.979Z,941.32
2017-06-28T02:42:43.109Z,941.28
2017-06-28T02:43:11.149Z,941.27
2017-06-28T02:43:39.256Z,941.27
2017-06-28T02:44:07.382Z,941.27
2017-06-28T02:44:35.450Z,941.27
2017-06-28T02:45:03.573Z,941.27
2017-06-28T02:45:31.731Z,941.28
2017-06-28T02:45:59.784Z,941.29
2017-06-28T02:46:27.900Z,941.28
2017-06-28T02:46:56.033Z,941.29
2017-06-28T02:47:24.168Z,941.29
2017-06-28T02:47:52.295Z,941.33
2017-06-28T02:48:20.337Z,941.32
2017-06-28T02:48:48.492Z,941.31
2017-06-28T02:49:16.627Z,941.34
2017-06-28T02:49:44.777Z,941.34
2017-06-28T02:50:12.913Z,941.32
2017-06-28T02:50:41.055Z,941.34
2017-06-28T02:51:09.109Z,941.34
2017-06-28T02:51:37.245Z,941.38
2017-06-28T02:52:05.288Z,941.36
2017-06-28T02:52:33.447Z,941.39
2017-06-28T02:53:01.514Z,941.4
2017-06-28T02:53:29.677Z,941.38
2017-06-28T02:53:57.777Z,941.38
2017-06-28T02:54:25.945Z,941.37
2017-06-28T02:54:54.010Z,941.38
2017-06-28T02:55:22.158Z,941.36
2017-06-28T02:55:50.294Z,941.37
2017-06-28T02:56:18.424Z,941.37
2017-06-28T02:56:46.549Z,941.33
2017-06-28T02:57:14.684Z,941.36
2017-06-28T02:57:42.819Z,941.38
2017-06-28T02:58:10.973Z,941.37
2017-06-28T02:58:39.094Z,941.37
2017-06-28T02:59:07.238Z,941.39
2017-06-28T02:59:35.379Z,941.35
2017-06-28T03:00:03.505Z,941.37
2017-06-28T03:00:31.555Z,941.39
2017-06-28T03:00:59.676Z,941.39
2017-06-28T03:01:27.726Z,941.39
2017-06-28T03:01:55.787Z,941.37
2017-06-28T03:02:23.904Z,941.33
2017-06-28T03:02:52.054Z,941.34
2017-06-28T03:03:20.099Z,941.34
2017-06-28T03:03:48.215Z,941.36
2017-06-28T03:04:16.238Z,941.35
2017-06-28T03:04:44.281Z,941.31
2017-06-28T03:05:12.423Z,941.31
2017-06-28T03:05:40.572Z,941.34
2017-06-28T03:06:08.694Z,941.31
2017-06-28T03:06:36.851Z,941.31
2017-06-28T03:07:04.983Z,941.3
2017-06-28T03:07:33.114Z,941.29
2017-06-28T03:08:01.146Z,941.29
2017-06-28T03:08:29.248Z,941.29
2017-06-28T03:08:57.400Z,941.28
2017-06-28T03:09:25.538Z,941.27
2017-06-28T03:09:53.564Z,941.27
2017-06-28T03:10:21.709Z,941.27
2017-06-28T03:10:49.755Z,941.24
2017-06-28T03:11:17.889Z,941.23
2017-06-28T03:11:45.993Z,941.23
2017-06-28T03:12:14.112Z,941.25
2017-06-28T03:12:42.271Z,941.22
2017-06-28T03:13:10.404Z,941.26
2017-06-28T03:13:38.345Z,941.23
2017-06-28T03:14:06.469Z,941.24
2017-06-28T03:14:34.620Z,941.24
2017-06-28T03:15:02.760Z,941.25
2017-06-28T03:15:30.776Z,941.27
2017-06-28T03:15:58.901Z,941.27
2017-06-28T03:16:27.065Z,941.29
2017-06-28T03:16:55.188Z,941.28
2017-06-28T03:17:23.236Z,941.25
2017-06-28T03:17:51.293Z,941.28
2017-06-28T03:18:19.430Z,941.32
2017-06-28T03:18:47.547Z,941.33
2017-06-28T03:19:15.687Z,941.32
2017-06-28T03:19:43.707Z,941.26
2017-06-28T03:20:11.821Z,941.29
2017-06-28T03:20:39.836Z,941.26
2017-06-28T03:21:07.903Z,941.26
2017-06-28T03:21:36.054Z,941.27
2017-06-28T03:22:04.209Z,941.29
2017-06-28T03:22:32.361Z,941.3
2017-06-28T03:23:00.471Z,941.3
2017-06-28T03:23:28.515Z,941.29
2017-06-28T03:23:56.557Z,941.26
2017-06-28T03:24:24.684Z,941.26
2017-06-28T03:24:52.723Z,941.25
2017-06-28T03:25:20.852Z,941.25
2017-06-28T03:25:49.021Z,941.26
2017-06-28T03:26:17.154Z,941.26
2017-06-28T03:26:45.274Z,941.23
2017-06-28T03:27:13.322Z,941.26
2017-06-28T03:27:41.451Z,941.24
2017-06-28T03:28:09.575Z,941.21
2017-06-28T03:28:37.699Z,941.24
2017-06-28T03:29:05.843Z,941.24
2017-06-28T03:29:33.955Z,941.22
2017-06-28T03:30:01.987Z,941.24
2017-06-28T03:30:30.116Z,941.23
2017-06-28T03:30:58.250Z,941.23
2017-06-28T03:31:26.399Z,941.24
2017-06-28T03:31:54.447Z,941.24
2017-06-28T03:32:22.474Z,941.23
2017-06-28T03:32:50.597Z,941.23
2017-06-28T03:33:18.729Z,941.22
2017-06-28T03:33:46.857Z,941.22
2017-06-28T03:34:14.996Z,941.23
2017-06-28T03:34:43.135Z,941.24
2017-06-28T03:35:11.270Z,941.21
2017-06-28T03:35:39.440Z,941.24
2017-06-28T03:36:07.450Z,941.22
2017-06-28T03:36:35.577Z,941.21
2017-06-28T03:37:03.703Z,941.23
2017-06-28T03:37:31.841Z,941.23
2017-06-28T03:37:59.963Z,941.26
2017-06-28T03:38:28.107Z,941.26
2017-06-28T03:38:56.244Z,941.22
2017-06-28T03:39:24.359Z,941.24
2017-06-28T03:39:52.508Z,941.21
2017-06-28T03:40:20.671Z,941.23
2017-06-28T03:40:48.777Z,941.23
2017-06-28T03:41:16.912Z,941.24
2017-06-28T03:41:44.938Z,941.22
2017-06-28T03:42:13.076Z,941.2
2017-06-28T03:42:41.228Z,941.2
2017-06-28T03:43:09.282Z,941.19
2017-06-28T03:43:37.416Z,941.2
2017-06-28T03:44:05.542Z,941.2
2017-06-28T03:44:33.645Z,941.2
2017-06-28T03:45:01.662Z,941.2
2017-06-28T03:45:29.782Z,941.2
2017-06-28T03:45:57.925Z,941.17
2017-06-28T03:46:25.971Z,941.18
2017-06-28T03:46:54.095Z,941.15
2017-06-28T03:47:22.121Z,941.2
2017-06-28T03:47:50.274Z,941.19
2017-06-28T03:48:18.333Z,941.18
2017-06-28T03:48:46.472Z,941.17
2017-06-28T03:49:14.591Z,941.15
2017-06-28T03:49:42.726Z,941.18
2017-06-28T03:50:10.853Z,941.18
2017-06-28T03:50:39.028Z,941.19
2017-06-28T03:51:07.182Z,941.14
2017-06-28T03:51:35.307Z,941.15
2017-06-28T03:52:03.452Z,941.16
2017-06-28T03:52:31.591Z,941.16
2017-06-28T03:52:59.626Z,941.16
2017-06-28T03:53:27.769Z,941.15
2017-06-28T03:53:55.802Z,941.14
2017-06-28T03:54:23.957Z,941.17
2017-06-28T03:54:52.056Z,941.19
2017-06-28T03:55:20.182Z,941.16
2017-06-28T03:55:48.320Z,941.18
2017-06-28T03:56:16.475Z,941.18
2017-06-28T03:56:44.438Z,941.17
2017-06-28T03:57:12.589Z,941.17
2017-06-28T03:57:40.641Z,941.16
2017-06-28T03:58:08.662Z,941.19
2017-06-28T03:58:36.704Z,941.19
2017-06-28T03:59:04.829Z,941.21
2017-06-28T03:59:32.975Z,941.23
2017-06-28T04:00:01.092Z,941.21
2017-06-28T04:00:30.508Z,941.22
2017-06-28T04:00:58.643Z,941.18
2017-06-28T04:01:26.710Z,941.22
2017-06-28T04:01:54.838Z,941.21
2017-06-28T04:02:22.908Z,941.2
2017-06-28T04:02:50.945Z,941.18
2017-06-28T04:03:19.000Z,941.22
2017-06-28T04:03:47.033Z,941.17
2017-06-28T04:04:15.072Z,941.17
2017-06-28T04:04:43.167Z,941.22
2017-06-28T04:05:11.298Z,941.22
2017-06-28T04:05:39.329Z,941.17
2017-06-28T04:06:07.574Z,941.18
2017-06-28T04:06:35.421Z,941.17
2017-06-28T04:07:03.532Z,941.18
2017-06-28T04:07:31.909Z,941.21
2017-06-28T04:07:59.960Z,941.2
2017-06-28T04:08:28.001Z,941.2
2017-06-28T04:08:56.124Z,941.2
2017-06-28T04:09:24.273Z,941.17
2017-06-28T04:09:52.393Z,941.17
2017-06-28T04:10:20.433Z,941.19
2017-06-28T04:10:48.570Z,941.2
2017-06-28T04:11:16.712Z,941.23
2017-06-28T04:11:44.855Z,941.22
2017-06-28T04:12:13.010Z,941.2
2017-06-28T04:12:41.152Z,941.2
2017-06-28T04:13:09.290Z,941.2
2017-06-28T04:13:37.429Z,941.21
2017-06-28T04:14:05.566Z,941.19
2017-06-28T04:14:33.714Z,941.17
2017-06-28T04:15:01.842Z,941.19
2017-06-28T04:15:29.984Z,941.2
2017-06-28T04:15:58.109Z,941.2
2017-06-28T04:16:26.257Z,941.2
2017-06-28T04:16:54.410Z,941.19
2017-06-28T04:17:22.450Z,941.21
2017-06-28T04:17:50.601Z,941.18
2017-06-28T04:18:18.733Z,941.18
2017-06-28T04:18:46.864Z,941.17
2017-06-28T04:19:15.005Z,941.19
2017-06-28T04:19:43.131Z,941.19
2017-06-28T04:20:11.252Z,941.18
2017-06-28T04:20:39.383Z,941.16
2017-06-28T04:21:07.442Z,941.22
2017-06-28T04:21:35.571Z,941.19
2017-06-28T04:22:03.682Z,941.18
2017-06-28T04:22:31.740Z,941.19
2017-06-28T04:22:59.848Z,941.22
2017-06-28T04:23:27.978Z,941.2
2017-06-28T04:23:56.120Z,941.23
2017-06-28T04:24:24.255Z,941.21
2017-06-28T04:24:52.299Z,941.22
2017-06-28T04:25:20.415Z,941.22
2017-06-28T04:25:48.562Z,941.26
2017-06-28T04:26:16.680Z,941.25
2017-06-28T04:26:44.808Z,941.25
2017-06-28T04:27:12.918Z,941.26
2017-06-28T04:27:40.957Z,941.28
2017-06-28T04:28:09.080Z,941.26
2017-06-28T04:28:37.226Z,941.22
2017-06-28T04:29:05.368Z,941.24
2017-06-28T04:29:33.501Z,941.25
2017-06-28T04:30:01.662Z,941.24
2017-06-28T04:30:29.786Z,941.23
2017-06-28T04:30:57.836Z,941.2
2017-06-28T04:31:25.975Z,941.21
2017-06-28T04:31:54.124Z,941.21
2017-06-28T04:32:22.249Z,941.23
2017-06-28T04:32:50.376Z,941.22
2017-06-28T04:33:18.497Z,941.21
2017-06-28T04:33:46.606Z,941.23
2017-06-28T04:34:14.750Z,941.22
2017-06-28T04:34:42.776Z,941.23
2017-06-28T04:35:10.902Z,941.14
2017-06-28T04:35:38.967Z,941.18
2017-06-28T04:36:07.123Z,941.21
2017-06-28T04:36:35.246Z,941.18
2017-06-28T04:37:03.361Z,941.18
2017-06-28T04:37:31.434Z,941.17
2017-06-28T04:37:59.566Z,941.2
2017-06-28T04:38:27.699Z,941.18
2017-06-28T04:38:55.871Z,941.14
2017-06-28T04:39:24.036Z,941.2
2017-06-28T04:39:52.203Z,941.18
2017-06-28T04:40:20.326Z,941.23
2017-06-28T04:40:48.378Z,941.22
2017-06-28T04:41:16.432Z,941.21
2017-06-28T04:41:44.556Z,941.24
2017-06-28T04:42:12.704Z,941.2
2017-06-28T04:42:40.835Z,941.21
2017-06-28T04:43:08.984Z,941.22
2017-06-28T04:43:37.143Z,941.22
2017-06-28T04:44:05.285Z,941.2
2017-06-28T04:44:33.420Z,941.18
2017-06-28T04:45:01.448Z,941.18
2017-06-28T04:45:29.576Z,941.17
2017-06-28T04:45:57.608Z,941.15
2017-06-28T04:46:25.732Z,941.15
2017-06-28T04:46:53.662Z,941.12
2017-06-28T04:47:21.817Z,941.15
2017-06-28T04:47:49.849Z,941.16
2017-06-28T04:48:17.968Z,941.14
2017-06-28T04:48:46.107Z,941.1
2017-06-28T04:49:14.141Z,941.12
2017-06-28T04:49:42.097Z,941.1
2017-06-28T04:50:10.252Z,941.14
2017-06-28T04:50:38.273Z,941.1
2017-06-28T04:51:06.303Z,941.12
2017-06-28T04:51:34.369Z,941.11
2017-06-28T04:52:02.501Z,941.09
2017-06-28T04:52:30.571Z,941.11
2017-06-28T04:52:58.707Z,941.14
2017-06-28T04:53:26.847Z,941.11
2017-06-28T04:53:55.028Z,941.07
2017-06-28T04:54:23.068Z,941.15
2017-06-28T04:54:51.174Z,941.09
2017-06-28T04:55:19.320Z,941.09
2017-06-28T04:55:47.351Z,941.07
2017-06-28T04:56:15.394Z,941.1
2017-06-28T04:56:43.553Z,941.09
2017-06-28T04:57:11.584Z,941.08
2017-06-28T04:57:39.705Z,941.07
2017-06-28T04:58:07.623Z,941.09
2017-06-28T04:58:35.766Z,941.12
2017-06-28T04:59:03.801Z,941.11
2017-06-28T04:59:31.971Z,941.1
2017-06-28T05:00:00.100Z,941.09
2017-06-28T05:00:28.241Z,941.06
2017-06-28T05:00:56.365Z,941.11
2017-06-28T05:01:24.495Z,941.12
2017-06-28T05:01:52.666Z,941.11
2017-06-28T05:02:20.792Z,941.13
2017-06-28T05:02:48.929Z,941.13
2017-06-28T05:03:17.083Z,941.11
2017-06-28T05:03:45.209Z,941.12
2017-06-28T05:04:13.354Z,941.08
2017-06-28T05:04:41.514Z,941.1
2017-06-28T05:05:09.472Z,941.13
2017-06-28T05:05:37.594Z,941.12
2017-06-28T05:06:05.728Z,941.1
2017-06-28T05:06:33.845Z,941.12
2017-06-28T05:07:01.995Z,941.09
2017-06-28T05:07:30.155Z,941.1
2017-06-28T05:07:58.300Z,941.09
2017-06-28T05:08:26.420Z,941.11
2017-06-28T05:08:54.543Z,941.07
2017-06-28T05:09:22.687Z,941.06
2017-06-28T05:09:50.830Z,941.11
2017-06-28T05:10:18.944Z,941.08
2017-06-28T05:10:47.077Z,941.09
2017-06-28T05:11:15.203Z,941.06
2017-06-28T05:11:43.339Z,941.07
2017-06-28T05:12:11.389Z,941.07
2017-06-28T05:12:39.517Z,941.08
2017-06-28T05:13:07.559Z,941.11
2017-06-28T05:13:35.692Z,941.07
2017-06-28T05:14:03.847Z,941.06
2017-06-28T05:14:31.984Z,941.06
2017-06-28T05:15:00.119Z,941.07
2017-06-28T05:15:28.218Z,941.06
2017-06-28T05:15:56.369Z,941.06
2017-06-28T05:16:24.415Z,941.04
2017-06-28T05:16:52.533Z,941.02
2017-06-28T05:17:20.645Z,941.04
2017-06-28T05:17:48.752Z,941.05
2017-06-28T05:18:16.863Z,941.04
2017-06-28T05:18:45.000Z,941.03
2017-06-28T05:19:13.143Z,941.04
2017-06-28T05:19:41.313Z,941.07
2017-06-28T05:20:09.431Z,941.01
2017-06-28T05:20:37.570Z,941.03
2017-06-28T05:21:05.723Z,941.06
2017-06-28T05:21:33.737Z,941.03
2017-06-28T05:22:01.881Z,941.05
2017-06-28T05:22:30.039Z,941.07
2017-06-28T05:22:58.157Z,941.05
2017-06-28T05:23:26.280Z,941.07
2017-06-28T05:23:54.409Z,941.03
2017-06-28T05:24:22.560Z,941.02
2017-06-28T05:24:50.697Z,941.04
2017-06-28T05:25:18.829Z,941.06
2017-06-28T05:25:46.954Z,941.06
2017-06-28T05:26:15.100Z,941.06
2017-06-28T05:26:43.246Z,941.03
2017-06-28T05:27:11.266Z,941.1
2017-06-28T05:27:39.406Z,941.05
2017-06-28T05:28:07.518Z,941.05
2017-06-28T05:28:35.653Z,941.05
2017-06-28T05:29:03.689Z,941.07
2017-06-28T05:29:31.830Z,941.06
2017-06-28T05:29:59.968Z,941.05
2017-06-28T05:30:28.118Z,941.03
2017-06-28T05:30:56.254Z,941.03
2017-06-28T05:31:24.221Z,941.03
2017-06-28T05:31:52.369Z,941.05
2017-06-28T05:32:20.428Z,941
2017-06-28T05:32:48.602Z,941
2017-06-28T05:33:16.758Z,941.02
2017-06-28T05:33:44.917Z,941.03
2017-06-28T05:34:13.051Z,940.99
2017-06-28T05:34:41.169Z,941
2017-06-28T05:35:09.312Z,940.96
2017-06-28T05:35:37.427Z,940.96
2017-06-28T05:36:05.443Z,940.97
2017-06-28T05:36:33.592Z,940.98
2017-06-28T05:37:01.720Z,940.99
2017-06-28T05:37:29.762Z,941.02
2017-06-28T05:37:57.939Z,940.97
2017-06-28T05:38:26.045Z,941.02
2017-06-28T05:38:54.093Z,940.98
2017-06-28T05:39:22.071Z,940.98
2017-06-28T05:39:50.222Z,940.99
2017-06-28T05:40:18.246Z,940.99
2017-06-28T05:40:46.384Z,940.97
2017-06-28T05:41:14.442Z,940.99
2017-06-28T05:41:42.598Z,941.02
2017-06-28T05:42:10.734Z,941.03
2017-06-28T05:42:38.767Z,940.99
2017-06-28T05:43:06.901Z,940.99
2017-06-28T05:43:35.048Z,941.01
2017-06-28T05:44:03.168Z,941.01
2017-06-28T05:44:31.321Z,941.04
2017-06-28T05:44:59.366Z,941.01
2017-06-28T05:45:27.526Z,941.02
2017-06-28T05:45:55.539Z,941.04
2017-06-28T05:46:23.605Z,941.06
2017-06-28T05:46:51.658Z,941.01
2017-06-28T05:47:19.588Z,940.98
2017-06-28T05:47:47.619Z,941.03
2017-06-28T05:48:15.690Z,941.03
2017-06-28T05:48:43.831Z,940.99
2017-06-28T05:49:11.939Z,941.03
2017-06-28T05:49:40.073Z,941.03
2017-06-28T05:50:08.199Z,941.03
2017-06-28T05:50:36.353Z,941.03
2017-06-28T05:51:04.521Z,941.04
2017-06-28T05:51:32.676Z,941.03